• Join FlightAware (Why Join?)
  • Login
  • US Flag 
03:14PM EDT


 

Airport Tracker/Info


-or-


 

Live Flight TrackerFlight Track Log ✈ AAR132 ✈ 08-May-2013 ✈ RKSI / ICN - RJFF / FUK

Flight Track Log - Related Links

Times and Time Zones

All times are in EDT time to prevent confusion due to time zone crossing. See the AAR132 flight status page for this flight to view local times or setup timezone preferences in your user account.

Time Position Orientation Groundspeed Altitude Reporting Facility
EDT Latitude Longitude Course Direction KTS MPH feet Rate Location/Type
08:45PM 37.5220 126.4040 325° Northwest 162 186 3,000  Level FlightAware
08:45PM 37.5350 126.3930 326° Northwest 188 216 3,300 360 Climbing FlightAware
08:45PM 37.5520 126.3790 327° Northwest 188 216 3,300 1,800 Level FlightAware
08:48PM 37.4163 126.5278 139° Southeast  Level Estimated
08:49PM 37.3526 126.5974 139° Southeast  Level Estimated
08:50PM 37.2888 126.6668 139° Southeast  Level Estimated
08:50PM 37.5540 126.6470 139° Southeast 11,700  Level FlightAware
08:51PM 37.4960 126.7130 138° Southeast 365 420 14,200 3,120 Climbing FlightAware
08:52PM 37.4360 126.7810 138° Southeast 378 435 16,400 2,700 Climbing FlightAware
08:52PM 37.3920 126.8270 140° Southeast 396 456 17,800 2,640 Climbing FlightAware
08:53PM 37.3140 126.9010 143° Southeast 406 467 20,200 2,640 Climbing FlightAware
08:54PM 37.2500 126.9620 143° Southeast 426 490 21,800 2,280 Climbing FlightAware
08:54PM 37.1840 127.0240 143° Southeast 439 505 23,300 2,100 Climbing FlightAware
08:55PM 37.1110 127.0930 143° Southeast 447 514 24,800 1,920 Climbing FlightAware
08:56PM 37.0440 127.1560 143° Southeast 465 535 26,100 2,040 Climbing FlightAware
08:57PM 36.9640 127.2310 143° Southeast 467 537 27,700 2,040 Climbing FlightAware
08:57PM 36.8950 127.2950 143° Southeast 466 536 29,000 900 Climbing FlightAware
08:58PM 36.8200 127.3720 141° Southeast 475 547 29,000  Level FlightAware
08:59PM 36.7550 127.4510 136° Southeast 473 544 29,000  Level FlightAware
08:59PM 36.7040 127.5130 136° Southeast 472 543 29,000  Level FlightAware
09:00PM 36.6360 127.5970 135° Southeast 472 543 29,000  Level FlightAware
09:01PM 36.5840 127.6630 134° Southeast 472 543 29,000  Level FlightAware
09:01PM 36.5310 127.7280 135° Southeast 472 543 29,000  Level FlightAware
09:02PM 36.4330 127.8430 137° Southeast 472 543 29,000  Level FlightAware
09:03PM 36.3730 127.9180 135° Southeast 472 543 29,000  Level FlightAware
09:04PM 36.3200 127.9840 135° Southeast 472 543 29,000  Level FlightAware
09:04PM 36.2550 128.0650 135° Southeast 472 543 29,000  Level FlightAware
09:05PM 36.2020 128.1300 135° Southeast 472 543 29,000  Level FlightAware
09:06PM 36.1500 128.1950 135° Southeast 472 543 29,000 -420 Level FlightAware
09:08PM 36.0335 128.3014 144° Southeast  Level Estimated
09:09PM 35.9656 128.3633 144° Southeast  Level Estimated
09:10PM 35.8977 128.4250 144° Southeast  Level Estimated
09:11PM 35.8298 128.4867 144° Southeast  Level Estimated
09:12PM 35.7618 128.5482 144° Southeast  Level Estimated
09:13PM 35.6938 128.6096 144° Southeast  Level Estimated
09:14PM 35.6257 128.6709 144° Southeast  Level Estimated
09:15PM 35.5577 128.7322 144° Southeast  Level Estimated
09:16PM 35.4895 128.7933 144° Southeast  Level Estimated
09:17PM 35.4214 128.8543 144° Southeast  Level Estimated
09:18PM 35.3532 128.9152 144° Southeast  Level Estimated
09:19PM 35.2850 128.9760 144° Southeast  Level Estimated
09:20PM 35.2168 129.0367 144° Southeast  Level Estimated
09:20PM 34.6410 129.4650 144° Southeast 439 505 23,700  Level FlightAware
09:20PM 34.5920 129.5140 141° Southeast 439 505 23,700 -2,100 Level FlightAware
09:21PM 34.5090 129.5930 142° Southeast 412 474 20,800 -3,840 Descending FlightAware
09:22PM 34.4290 129.6700 142° Southeast 399 459 17,000 -2,760 Descending FlightAware
09:23PM 34.3660 129.7310 141° Southeast 394 453 16,000 -2,940 Descending FlightAware
09:24PM 34.3050 129.7890 142° Southeast 369 425 12,600 -2,820 Descending FlightAware
09:24PM 34.2380 129.8520 142° Southeast 355 409 11,800 -960 Descending FlightAware
09:25PM 34.1900 129.8930 145° Southeast 333 383 11,200 -540 Descending FlightAware
09:26PM 34.1360 129.9410 144° Southeast 328 377 11,100 -1,020 Descending FlightAware
09:26PM 34.0860 129.9830 145° Southeast 299 344 9,800 -1,680 Descending FlightAware
09:27PM 34.0590 130.0070 144° Southeast 297 342 9,300 -1,200 Descending FlightAware
09:27PM 34.0260 130.0350 145° Southeast 294 338 8,700 -1,140 Descending FlightAware
09:28PM 33.9910 130.0650 145° Southeast 281 323 8,200 -780 Descending FlightAware
09:28PM 33.9660 130.0860 145° Southeast 268 308 8,000 -480 Descending FlightAware
09:29PM 33.9520 130.0980 145° Southeast 260 299 7,900 -540 Descending FlightAware
09:29PM 33.9220 130.1230 145° Southeast 244 281 7,600 -480 Descending FlightAware
09:29PM 33.9070 130.1350 146° Southeast 238 274 7,500 -900 Descending FlightAware
09:30PM 33.8740 130.1640 144° Southeast 218 251 6,800 -1,440 Descending FlightAware
09:30PM 33.8560 130.1930 127° Southeast 217 250 6,000 -1,440 Descending FlightAware
09:31PM 33.8430 130.2160 124° Southeast 210 242 5,500 -1,080 Descending FlightAware
09:31PM 33.8340 130.2300 128° Southeast 194 223 5,300 -1,080 Descending FlightAware
09:32PM 33.8220 130.2510 125° Southeast 183 211 4,800 -1,140 Descending FlightAware
09:32PM 33.8060 130.2760 128° Southeast 180 207 4,300 -660 Descending FlightAware
09:32PM 33.8020 130.2830 125° Southeast 180 207 4,200 60 Descending FlightAware
09:33PM 33.7910 130.3010 126° Southeast 197 227 4,400  Climbing FlightAware
09:33PM 33.7830 130.3140 127° Southeast 206 237 4,200 -1,080 Descending FlightAware
09:34PM 33.7560 130.3340 148° Southeast 192 221 3,600 -1,080 Descending FlightAware
09:34PM 33.7530 130.3360 151° Southeast 191 220 3,500 -240 Descending FlightAware
09:34PM 33.7360 130.3490 148° Southeast 191 220 3,500 -1,140 Level FlightAware
09:35PM 33.7080 130.3670 152° Southeast 177 204 2,300 -1,500 Descending FlightAware
09:35PM 33.6930 130.3780 149° Southeast 175 201 2,000 -960 Descending FlightAware
09:36PM 33.6720 130.3930 149° Southeast 171 197 1,500 -1,020 Descending FlightAware
09:36PM 33.6500 130.4060 154° Southeast 151 174 1,100 -840 Descending FlightAware
09:37PM 33.6330 130.4180 150° Southeast 143 165 700 -660 Descending FlightAware
09:37PM 33.6180 130.4290 149° Southeast 147 169 400 -360 Descending FlightAware
09:38PM 33.6030 130.4400 149° Southeast 147 169 400  Level FlightAware
09:40PM 33.5866 130.4502 153° Southeast  Level Estimated
09:41PM 33.5866 130.4502 248° West  Level Estimated
09:42PM 33.5866 130.4502 248° West  Level Estimated
09:43PM 33.5866 130.4502 248° West  Level Estimated
09:44PM 33.5866 130.4502 248° West  Level Estimated
09:45PM 33.5866 130.4502 248° West  Level Estimated
09:46PM 33.5866 130.4502 248° West  Level Estimated
09:47PM 33.5866 130.4502 248° West  Level Estimated
09:48PM 33.5866 130.4502 248° West  Level Estimated
09:49PM 33.5866 130.4502 248° West  Level Estimated
09:50PM 33.5866 130.4502 248° West  Level Estimated
09:51PM 33.5866 130.4502 248° West  Level Estimated
09:52PM 33.5866 130.4502 248° West  Level Estimated
09:53PM 33.5866 130.4502 248° West  Level Estimated
09:54PM 33.5866 130.4502 248° West  Level Estimated
09:55PM 33.5866 130.4502 248° West  Level Estimated
09:56PM 33.5866 130.4502 248° West  Level Estimated
09:57PM 33.5866 130.4502 248° West  Level Estimated
09:58PM 33.5866 130.4502 248° West  Level Estimated
09:59PM 33.5866 130.4502 248° West  Level Estimated
10:00PM 33.5866 130.4502 248° West  Level Estimated
10:01PM 33.5866 130.4502 248° West  Level Estimated